Time;durP1;ratioP1;P1;durP2;ratioP2;P2;SDS_P1;SDS_P2;PMS_P1;PMS_P2;Temp;Humidity;BMP_temperature;BMP_pressure;BME280_temperature;BME280_humidity;BME280_pressure;Samples;Min_cycle;Max_cycle;Signal;HPM_P1;HPM_P2
2021/11/04 02:11:50;;;;;;;37.28;25.45;;;;;;;;;;4996887;28;20103;-89
2021/11/04 02:14:23;;;;;;;34.65;25.23;;;;;;;;;;5000843;28;20098;-90
2021/11/04 02:16:49;;;;;;;;;;;;;;;;;;5001262;28;20057;-90
2021/11/04 02:19:33;;;;;;;37.53;25.20;;;;;;;;;;5001528;28;19921;-90
2021/11/04 02:22:19;;;;;;;30.13;22.63;;;;;;;;;;5001940;28;20042;-88
2021/11/04 02:24:48;;;;;;;33.15;24.23;;;;;;;;;;5002226;28;20075;-88
2021/11/04 02:27:15;;;;;;;35.13;24.65;;;;;;;;;;4980189;28;20042;-88
2021/11/04 02:29:42;;;;;;;35.33;24.33;;;;;;;;;;4979983;28;20022;-88
2021/11/04 02:32:09;;;;;;;35.10;24.25;;;;;;;;;;4979625;28;20045;-89
2021/11/04 02:34:36;;;;;;;33.15;24.38;;;;;;;;;;4997145;28;20022;-89
2021/11/04 02:37:03;;;;;;;33.92;23.88;;;;;;;;;;4979404;28;20018;-90
2021/11/04 02:39:29;;;;;;;33.90;24.90;;;;;;;;;;4980302;28;20026;-90
2021/11/04 02:41:55;;;;;;;36.78;24.05;;;;;;;;;;4980465;28;20037;-89
2021/11/04 02:44:22;;;;;;;32.42;24.80;;;;;;;;;;4979497;28;20031;-89
2021/11/04 02:46:49;;;;;;;35.95;24.20;;;;;;;;;;4979759;28;20024;-90
2021/11/04 02:49:15;;;;;;;32.30;24.45;;;;;;;;;;4979386;28;20056;-89
2021/11/04 02:51:41;;;;;;;33.97;24.50;;;;;;;;;;4979835;28;20018;-90
2021/11/04 02:54:08;;;;;;;32.25;23.45;;;;;;;;;;4980190;28;20102;-89
2021/11/04 02:56:51;;;;;;;36.13;23.65;;;;;;;;;;4995589;28;20016;-89
2021/11/04 02:59:18;;;;;;;35.30;23.55;;;;;;;;;;4981342;28;20341;-89
2021/11/04 03:01:46;;;;;;;37.05;25.15;;;;;;;;;;4979597;28;20218;-89
2021/11/04 03:04:14;;;;;;;33.42;24.15;;;;;;;;;;4978848;28;20026;-91
2021/11/04 03:06:40;;;;;;;36.33;24.85;;;;;;;;;;4978837;28;20135;-91
2021/11/04 03:09:06;;;;;;;33.13;22.90;;;;;;;;;;4978886;28;20113;-91
2021/11/04 03:11:32;;;;;;;33.35;23.20;;;;;;;;;;4979174;28;20488;-90
2021/11/04 03:13:58;;;;;;;29.92;22.13;;;;;;;;;;4979129;28;20050;-90
2021/11/04 03:16:25;;;;;;;32.47;22.85;;;;;;;;;;4975960;28;20077;-90
2021/11/04 03:18:52;;;;;;;32.38;22.20;;;;;;;;;;4975847;28;20023;-90
2021/11/04 03:21:19;;;;;;;30.73;23.55;;;;;;;;;;4975837;28;20555;-90
2021/11/04 03:23:45;;;;;;;34.05;23.88;;;;;;;;;;4975633;28;20492;-90
2021/11/04 03:26:13;;;;;;;34.33;24.80;;;;;;;;;;4979836;28;20019;-92
2021/11/04 03:28:41;;;;;;;33.25;23.13;;;;;;;;;;4979346;28;20034;-91
2021/11/04 03:31:07;;;;;;;32.67;22.27;;;;;;;;;;4978858;28;20037;-91
2021/11/04 03:33:34;;;;;;;33.30;22.63;;;;;;;;;;4978615;28;20030;-90
2021/11/04 03:36:00;;;;;;;31.08;22.52;;;;;;;;;;4979006;28;20022;-90
2021/11/04 03:38:30;;;;;;;30.60;21.73;;;;;;;;;;4978676;28;20036;-90
2021/11/04 03:40:58;;;;;;;30.23;22.38;;;;;;;;;;4978900;28;20026;-90
2021/11/04 03:43:25;;;;;;;30.95;22.33;;;;;;;;;;4995550;28;20018;-91
2021/11/04 03:45:51;;;;;;;32.67;22.48;;;;;;;;;;4995337;28;20022;-90
2021/11/04 03:48:17;;;;;;;31.25;22.73;;;;;;;;;;4978545;28;20030;-91
2021/11/04 03:50:43;;;;;;;31.40;22.25;;;;;;;;;;4978701;28;20034;-91
2021/11/04 03:53:16;;;;;;;33.30;22.75;;;;;;;;;;4979625;28;20022;-90
2021/11/04 03:55:43;;;;;;;34.30;23.20;;;;;;;;;;4978468;28;20096;-90
2021/11/04 03:58:10;;;;;;;34.05;23.05;;;;;;;;;;4978608;28;20019;-90
2021/11/04 04:00:36;;;;;;;32.05;23.55;;;;;;;;;;4978974;28;20076;-89
2021/11/04 04:03:02;;;;;;;33.72;24.08;;;;;;;;;;4970325;28;20023;-90
2021/11/04 04:05:29;;;;;;;31.92;22.67;;;;;;;;;;4975745;28;20023;-90
2021/11/04 04:07:55;;;;;;;31.40;23.15;;;;;;;;;;4982478;28;20026;-91
2021/11/04 04:10:22;;;;;;;30.55;23.63;;;;;;;;;;4982007;28;20022;-88
2021/11/04 04:12:48;;;;;;;37.08;26.52;;;;;;;;;;4980003;28;20038;-90
2021/11/04 04:15:14;;;;;;;35.35;25.45;;;;;;;;;;4979278;28;20495;-88
2021/11/04 04:17:40;;;;;;;38.20;25.70;;;;;;;;;;4979910;28;20050;-91
2021/11/04 04:20:07;;;;;;;38.03;25.52;;;;;;;;;;4978676;28;20026;-91
2021/11/04 04:22:33;;;;;;;34.45;25.13;;;;;;;;;;4978338;28;20069;-91
2021/11/04 04:24:59;;;;;;;31.92;24.55;;;;;;;;;;4978637;28;20041;-91
2021/11/04 04:27:25;;;;;;;34.05;23.75;;;;;;;;;;4977905;28;20130;-91
2021/11/04 04:29:51;;;;;;;33.42;24.63;;;;;;;;;;4978654;28;20486;-90
2021/11/04 04:32:17;;;;;;;31.00;23.40;;;;;;;;;;4978197;28;20058;-91
2021/11/04 04:34:43;;;;;;;33.60;24.60;;;;;;;;;;4993556;28;20026;-92
2021/11/04 04:37:10;;;;;;;33.05;24.52;;;;;;;;;;4978049;28;20026;-91
2021/11/04 04:39:37;;;;;;;36.05;25.00;;;;;;;;;;4968848;28;20030;-93
2021/11/04 04:42:03;;;;;;;34.85;25.25;;;;;;;;;;4959410;28;20038;-92
2021/11/04 04:44:29;;;;;;;36.05;26.00;;;;;;;;;;4958710;28;20481;-92
2021/11/04 04:46:57;;;;;;;32.78;23.75;;;;;;;;;;4958930;28;20073;-92
2021/11/04 04:49:23;;;;;;;34.22;23.38;;;;;;;;;;4958651;28;20035;-92
2021/11/04 04:51:50;;;;;;;32.63;23.35;;;;;;;;;;4958719;28;20050;-92
2021/11/04 04:54:16;;;;;;;36.28;24.63;;;;;;;;;;4975306;28;20030;-92
2021/11/04 04:56:42;;;;;;;32.22;22.75;;;;;;;;;;4971903;28;20030;-92
2021/11/04 04:59:08;;;;;;;32.55;23.05;;;;;;;;;;4972857;28;20042;-91
2021/11/04 05:01:35;;;;;;;35.72;24.80;;;;;;;;;;4958445;28;20035;-92
2021/11/04 05:04:01;;;;;;;32.75;23.25;;;;;;;;;;4958076;28;20019;-91
2021/11/04 05:06:27;;;;;;;34.58;25.25;;;;;;;;;;4958087;28;20022;-91
2021/11/04 05:08:53;;;;;;;34.55;24.63;;;;;;;;;;4957992;28;20557;-92
2021/11/04 05:11:19;;;;;;;35.65;25.23;;;;;;;;;;4963759;28;20038;-92
2021/11/04 05:13:45;;;;;;;38.88;26.13;;;;;;;;;;4993159;28;20028;-91
2021/11/04 05:16:11;;;;;;;36.88;25.13;;;;;;;;;;4993676;28;20038;-92
2021/11/04 05:18:37;;;;;;;36.13;25.70;;;;;;;;;;4993866;28;20026;-93
2021/11/04 05:21:03;;;;;;;39.30;26.25;;;;;;;;;;4994594;28;20033;-92
2021/11/04 05:23:29;;;;;;;36.08;25.63;;;;;;;;;;4977439;28;20491;-92
2021/11/04 05:25:55;;;;;;;35.63;25.25;;;;;;;;;;4979160;28;20026;-89
2021/11/04 05:28:21;;;;;;;37.65;26.02;;;;;;;;;;4967574;28;20519;-88
2021/11/04 05:30:48;;;;;;;34.78;25.10;;;;;;;;;;4976410;28;20026;-89
2021/11/04 05:33:14;;;;;;;35.45;23.83;;;;;;;;;;4968395;28;20023;-90
2021/11/04 05:35:40;;;;;;;33.55;23.55;;;;;;;;;;4973564;28;20101;-90
2021/11/04 05:38:07;;;;;;;32.67;22.10;;;;;;;;;;4977178;28;20022;-91
2021/11/04 05:40:34;;;;;;;34.25;22.67;;;;;;;;;;4978127;28;20033;-91
2021/11/04 05:43:01;;;;;;;29.55;21.35;;;;;;;;;;4978686;28;20022;-90
2021/11/04 05:45:27;;;;;;;30.23;22.20;;;;;;;;;;4980869;28;20034;-92
2021/11/04 05:47:53;;;;;;;30.40;21.58;;;;;;;;;;4978068;28;20085;-92
2021/11/04 05:50:20;;;;;;;30.85;20.73;;;;;;;;;;4970489;28;20399;-92
2021/11/04 05:52:46;;;;;;;35.35;21.77;;;;;;;;;;4964453;28;20436;-91
2021/11/04 05:55:13;;;;;;;30.75;21.05;;;;;;;;;;4981660;28;20472;-91
2021/11/04 05:57:39;;;;;;;27.33;20.08;;;;;;;;;;4971932;28;20544;-92
2021/11/04 06:00:05;;;;;;;30.40;20.48;;;;;;;;;;4961879;28;20097;-91
2021/11/04 06:02:31;;;;;;;27.90;20.38;;;;;;;;;;4961287;28;20035;-91
2021/11/04 06:04:57;;;;;;;27.35;19.52;;;;;;;;;;4962950;28;20512;-91
2021/11/04 06:07:25;;;;;;;26.08;18.80;;;;;;;;;;4963586;28;20374;-92
2021/11/04 06:09:51;;;;;;;30.85;20.30;;;;;;;;;;4970734;28;20019;-91
2021/11/04 06:12:17;;;;;;;26.30;20.27;;;;;;;;;;4998958;28;20118;-91
2021/11/04 06:14:43;;;;;;;25.00;18.52;;;;;;;;;;4998768;28;20098;-92
2021/11/04 06:17:09;;;;;;;27.50;20.38;;;;;;;;;;4995592;28;20030;-92
2021/11/04 06:19:36;;;;;;;33.92;23.13;;;;;;;;;;4982658;28;20096;-92
2021/11/04 06:22:03;;;;;;;30.92;22.58;;;;;;;;;;4998064;28;20587;-92
2021/11/04 06:24:29;;;;;;;29.92;21.38;;;;;;;;;;4967749;28;20649;-91
2021/11/04 06:26:55;;;;;;;28.23;21.08;;;;;;;;;;4974581;28;20033;-92
2021/11/04 06:29:21;;;;;;;27.50;20.23;;;;;;;;;;4997636;28;20026;-92
2021/11/04 06:31:47;;;;;;;27.17;20.67;;;;;;;;;;4997502;28;20022;-92
2021/11/04 06:34:13;;;;;;;26.30;18.52;;;;;;;;;;4980123;28;20123;-90
2021/11/04 06:36:39;;;;;;;28.15;19.90;;;;;;;;;;4996515;28;20027;-91
2021/11/04 06:39:05;;;;;;;26.13;18.45;;;;;;;;;;4996814;28;20030;-90
2021/11/04 06:41:32;;;;;;;22.50;17.17;;;;;;;;;;4996156;28;20391;-92
2021/11/04 06:43:58;;;;;;;23.20;17.20;;;;;;;;;;4979632;28;20026;-91
2021/11/04 06:46:25;;;;;;;22.48;16.58;;;;;;;;;;4980199;28;20420;-91
2021/11/04 06:49:01;;;;;;;24.77;17.65;;;;;;;;;;4997563;28;20118;-91
2021/11/04 06:51:47;;;;;;;21.27;16.45;;;;;;;;;;4980016;28;20033;-91
2021/11/04 06:54:14;;;;;;;22.50;18.00;;;;;;;;;;4883866;29;20503;-90
2021/11/04 06:57:03;;;;;;;22.90;17.63;;;;;;;;;;4884865;29;20041;-90
2021/11/04 06:59:35;;;;;;;21.48;18.00;;;;;;;;;;4883740;29;20124;-91
2021/11/04 07:02:05;;;;;;;19.92;16.48;;;;;;;;;;4884748;29;20545;-90
2021/11/04 07:04:34;;;;;;;21.65;17.10;;;;;;;;;;4883620;29;20085;-92
2021/11/04 07:07:08;;;;;;;20.35;15.25;;;;;;;;;;4883953;29;20032;-89
2021/11/04 07:09:36;;;;;;;19.90;16.13;;;;;;;;;;4880732;29;20032;-91
2021/11/04 07:12:03;;;;;;;18.13;14.85;;;;;;;;;;4883154;29;20055;-91
2021/11/04 07:14:30;;;;;;;18.67;15.43;;;;;;;;;;4900377;29;20056;-92
2021/11/04 07:16:57;;;;;;;20.10;16.00;;;;;;;;;;4886018;29;20032;-91
2021/11/04 07:19:23;;;;;;;18.20;15.23;;;;;;;;;;4884400;29;20049;-92
2021/11/04 07:21:52;;;;;;;18.52;15.13;;;;;;;;;;4883885;29;20581;-90
2021/11/04 07:24:23;;;;;;;18.40;16.42;;;;;;;;;;4883325;29;20049;-92
2021/11/04 07:26:52;;;;;;;17.50;14.68;;;;;;;;;;4883665;29;20031;-90
2021/11/04 07:29:21;;;;;;;19.55;15.55;;;;;;;;;;4884851;29;20054;-89
2021/11/04 07:31:48;;;;;;;19.08;14.65;;;;;;;;;;4956697;28;20481;-88
2021/11/04 07:34:18;;;;;;;18.38;14.27;;;;;;;;;;4965385;28;20058;-88
2021/11/04 07:36:44;;;;;;;19.20;15.48;;;;;;;;;;4965590;28;20034;-89
2021/11/04 07:39:13;;;;;;;18.35;13.20;;;;;;;;;;4986853;28;20118;-89
2021/11/04 07:41:40;;;;;;;16.50;12.32;;;;;;;;;;4972327;28;20030;-89
2021/11/04 07:44:08;;;;;;;14.75;10.63;;;;;;;;;;4962212;28;20535;-89
2021/11/04 07:46:34;;;;;;;14.50;10.23;;;;;;;;;;4959893;28;20489;-89
2021/11/04 07:49:01;;;;;;;12.25;9.25;;;;;;;;;;4976778;28;20046;-89
2021/11/04 07:51:27;;;;;;;11.38;7.22;;;;;;;;;;4976159;28;20442;-89
2021/11/04 07:53:53;;;;;;;9.15;5.85;;;;;;;;;;4959695;28;20073;-90
2021/11/04 07:56:19;;;;;;;6.50;4.05;;;;;;;;;;4976652;28;20039;-90
2021/11/04 07:58:45;;;;;;;5.70;3.42;;;;;;;;;;4959274;28;20027;-89
2021/11/04 08:01:11;;;;;;;4.85;2.50;;;;;;;;;;4973974;28;20026;-90
2021/11/04 08:03:37;;;;;;;4.32;1.98;;;;;;;;;;4979365;28;20060;-88
2021/11/04 08:06:04;;;;;;;3.92;1.40;;;;;;;;;;4985838;28;20023;-89
2021/11/04 08:08:30;;;;;;;3.70;1.35;;;;;;;;;;4985511;28;20034;-89
2021/11/04 08:10:56;;;;;;;2.63;1.00;;;;;;;;;;5004203;28;20046;-86
2021/11/04 08:13:22;;;;;;;4.43;0.80;;;;;;;;;;5005286;28;20026;-88
2021/11/04 08:15:49;;;;;;;1.63;0.63;;;;;;;;;;5002055;28;20034;-88
2021/11/04 08:18:15;;;;;;;1.67;0.77;;;;;;;;;;4986991;28;20030;-88
2021/11/04 08:20:41;;;;;;;1.60;0.70;;;;;;;;;;4990435;28;20049;-90
2021/11/04 08:23:08;;;;;;;4.32;0.60;;;;;;;;;;4983041;28;20050;-88
2021/11/04 08:25:34;;;;;;;2.03;0.93;;;;;;;;;;4983665;28;20026;-88
2021/11/04 08:28:01;;;;;;;3.05;0.60;;;;;;;;;;4987692;28;20037;-88
2021/11/04 08:30:27;;;;;;;1.58;0.52;;;;;;;;;;4987542;28;20026;-88
2021/11/04 08:32:53;;;;;;;1.08;0.50;;;;;;;;;;4981722;28;20365;-88
2021/11/04 08:35:19;;;;;;;1.73;0.57;;;;;;;;;;4978150;28;20057;-88
2021/11/04 08:37:45;;;;;;;0.98;0.40;;;;;;;;;;4996318;28;20056;-89
2021/11/04 08:40:11;;;;;;;2.20;0.50;;;;;;;;;;4976993;28;20093;-87
2021/11/04 08:42:37;;;;;;;1.45;0.40;;;;;;;;;;4977711;28;20033;-88
2021/11/04 08:45:04;;;;;;;0.82;0.30;;;;;;;;;;4977235;28;20498;-89
2021/11/04 08:47:30;;;;;;;1.48;0.60;;;;;;;;;;4976854;28;20030;-89
2021/11/04 08:49:57;;;;;;;1.63;0.40;;;;;;;;;;4966678;28;20023;-90
2021/11/04 08:52:24;;;;;;;1.65;0.38;;;;;;;;;;4966561;28;20031;-89
2021/11/04 08:54:50;;;;;;;1.05;0.50;;;;;;;;;;4963481;28;20105;-87
2021/11/04 08:57:18;;;;;;;1.10;0.60;;;;;;;;;;4971017;28;20085;-87
2021/11/04 08:59:44;;;;;;;1.52;0.60;;;;;;;;;;4993973;28;20036;-87
2021/11/04 09:02:13;;;;;;;0.73;0.40;;;;;;;;;;4977087;28;20034;-87
2021/11/04 09:04:43;;;;;;;1.17;0.35;;;;;;;;;;4977122;28;20392;-87
2021/11/04 09:07:10;;;;;;;1.08;0.40;;;;;;;;;;4974437;28;20032;-86
2021/11/04 09:09:36;;;;;;;1.92;0.70;;;;;;;;;;4976500;28;20076;-88
2021/11/04 09:12:03;;;;;;;0.88;0.40;;;;;;;;;;4975109;28;20050;-87
2021/11/04 09:14:29;;;;;;;0.98;0.43;;;;;;;;;;4990232;28;20030;-86
2021/11/04 09:16:55;;;;;;;0.90;0.45;;;;;;;;;;4966722;28;20030;-87
2021/11/04 09:19:21;;;;;;;1.63;0.60;;;;;;;;;;4975630;28;20027;-87
2021/11/04 09:21:47;;;;;;;1.13;0.50;;;;;;;;;;4961057;28;20392;-88
2021/11/04 09:24:13;;;;;;;1.27;0.65;;;;;;;;;;4976046;28;20424;-88
2021/11/04 09:26:40;;;;;;;1.83;0.60;;;;;;;;;;4967921;28;20392;-88
2021/11/04 09:29:18;;;;;;;0.82;0.40;;;;;;;;;;4957711;28;20026;-87
2021/11/04 09:31:44;;;;;;;1.38;0.40;;;;;;;;;;4970103;28;20046;-87
2021/11/04 09:34:10;;;;;;;0.80;0.40;;;;;;;;;;4976627;28;20027;-88
2021/11/04 09:36:36;;;;;;;1.92;0.65;;;;;;;;;;4969621;28;20019;-87
2021/11/04 09:39:03;;;;;;;1.15;0.40;;;;;;;;;;4994001;28;20027;-88
2021/11/04 09:41:30;;;;;;;0.52;0.32;;;;;;;;;;4994365;28;20069;-88
2021/11/04 09:44:02;;;;;;;1.02;0.30;;;;;;;;;;4985224;28;20050;-89
2021/11/04 09:46:28;;;;;;;1.40;0.40;;;;;;;;;;4997089;28;20082;-88
2021/11/04 09:48:55;;;;;;;1.27;0.35;;;;;;;;;;4997091;28;20061;-89
2021/11/04 09:51:21;;;;;;;0.65;0.40;;;;;;;;;;5011751;28;20049;-88
2021/11/04 09:53:48;;;;;;;0.88;0.50;;;;;;;;;;4979375;28;20038;-90
2021/11/04 09:56:15;;;;;;;1.27;0.65;;;;;;;;;;4994672;28;20022;-88
2021/11/04 09:58:41;;;;;;;0.77;0.32;;;;;;;;;;4977265;28;20045;-88
2021/11/04 10:01:23;;;;;;;0.63;0.30;;;;;;;;;;4976516;28;20063;-88
2021/11/04 10:03:49;;;;;;;0.83;0.40;;;;;;;;;;4976448;28;20030;-89
2021/11/04 10:06:27;;;;;;;1.10;0.40;;;;;;;;;;4993617;28;20257;-90
2021/11/04 10:08:54;;;;;;;0.68;0.30;;;;;;;;;;4995690;28;20034;-89
2021/11/04 10:11:22;;;;;;;1.05;0.40;;;;;;;;;;4976305;28;20037;-88
2021/11/04 10:13:49;;;;;;;1.17;0.40;;;;;;;;;;4993212;28;20022;-89
2021/11/04 10:16:16;;;;;;;1.40;0.50;;;;;;;;;;4976514;28;20061;-90
2021/11/04 10:18:46;;;;;;;2.25;0.50;;;;;;;;;;4976214;28;20026;-88
2021/11/04 10:21:12;;;;;;;1.48;0.50;;;;;;;;;;4976130;28;20019;-89
2021/11/04 10:23:45;;;;;;;2.25;0.60;;;;;;;;;;4976329;28;20034;-89
2021/11/04 10:26:16;;;;;;;1.45;0.50;;;;;;;;;;4994050;28;20022;-89
2021/11/04 10:28:49;;;;;;;1.58;0.50;;;;;;;;;;4976233;28;20166;-89
2021/11/04 10:31:16;;;;;;;1.70;0.65;;;;;;;;;;4997585;28;20169;-89
2021/11/04 10:33:44;;;;;;;1.23;0.50;;;;;;;;;;4981005;28;20026;-87
2021/11/04 10:36:10;;;;;;;2.05;0.65;;;;;;;;;;4979775;28;20058;-88
2021/11/04 10:38:37;;;;;;;1.20;0.40;;;;;;;;;;4979538;28;20034;-88
2021/11/04 10:41:08;;;;;;;0.90;0.40;;;;;;;;;;4979686;28;20036;-91
2021/11/04 10:43:35;;;;;;;3.03;0.70;;;;;;;;;;4980724;28;20041;-91
2021/11/04 10:46:06;;;;;;;1.08;0.45;;;;;;;;;;4980821;28;20105;-90
2021/11/04 10:48:45;;;;;;;2.88;0.55;;;;;;;;;;4981178;28;20061;-89
2021/11/04 10:51:12;;;;;;;1.40;0.60;;;;;;;;;;4988213;28;20023;-88
2021/11/04 10:53:39;;;;;;;1.17;0.40;;;;;;;;;;4988516;28;20031;-92
2021/11/04 10:56:08;;;;;;;1.25;0.60;;;;;;;;;;4982935;28;20038;-90
2021/11/04 10:58:35;;;;;;;2.63;0.60;;;;;;;;;;4980649;28;20030;-92
2021/11/04 11:01:02;;;;;;;0.73;0.40;;;;;;;;;;4998059;28;20031;-88
2021/11/04 11:03:38;;;;;;;0.38;0.38;;;;;;;;;;4980141;28;20026;-90
2021/11/04 11:06:08;;;;;;;1.45;0.40;;;;;;;;;;4979082;28;20188;-89
2021/11/04 11:08:34;;;;;;;2.30;0.45;;;;;;;;;;4980375;28;20033;-89
2021/11/04 11:11:00;;;;;;;0.85;0.50;;;;;;;;;;4981784;28;20042;-88
2021/11/04 11:13:26;;;;;;;0.70;0.40;;;;;;;;;;4981880;28;20046;-88
2021/11/04 11:15:56;;;;;;;1.75;0.60;;;;;;;;;;4980149;28;20026;-89
2021/11/04 11:18:23;;;;;;;1.08;0.60;;;;;;;;;;4979889;28;20531;-89
2021/11/04 11:20:50;;;;;;;2.08;0.70;;;;;;;;;;4980138;28;20484;-91
2021/11/04 11:23:18;;;;;;;1.58;0.80;;;;;;;;;;4980674;28;20503;-89
2021/11/04 11:25:55;;;;;;;2.45;0.65;;;;;;;;;;4979728;28;20054;-90
2021/11/04 11:28:22;;;;;;;3.30;0.90;;;;;;;;;;4979938;28;20033;-92
2021/11/04 11:31:07;;;;;;;2.63;1.50;;;;;;;;;;4979820;28;20121;-90
2021/11/04 11:33:33;;;;;;;2.55;0.98;;;;;;;;;;4978170;28;20470;-90
2021/11/04 11:36:28;;;;;;;1.67;0.77;;;;;;;;;;4978817;28;20030;-91
2021/11/04 11:38:58;;;;;;;2.45;1.00;;;;;;;;;;4963594;28;20133;-90
2021/11/04 11:42:02;;;;;;;;;;;;;;;;;;;;;
2021/11/04 11:44:38;;;;;;;7.47;1.88;;;;;;;;;;4996941;28;20030;-90
2021/11/04 11:47:05;;;;;;;2.88;1.00;;;;;;;;;;4979156;28;20030;-90
2021/11/04 11:49:32;;;;;;;3.38;0.90;;;;;;;;;;4979867;28;20046;-90
2021/11/04 11:51:58;;;;;;;2.83;0.80;;;;;;;;;;4979645;28;20026;-92
2021/11/04 11:54:53;;;;;;;1.90;0.77;;;;;;;;;;4980080;28;20023;-91
2021/11/04 11:57:19;;;;;;;1.65;0.80;;;;;;;;;;4980892;28;20057;-93
2021/11/04 11:59:49;;;;;;;2.92;1.10;;;;;;;;;;4981324;28;20018;-92
2021/11/04 12:02:34;;;;;;;2.30;1.00;;;;;;;;;;4980676;28;20161;-92
2021/11/04 12:05:19;;;;;;;2.25;0.82;;;;;;;;;;4980192;28;20054;-92
2021/11/04 12:07:45;;;;;;;2.15;1.00;;;;;;;;;;4979348;28;20027;-91
2021/11/04 12:10:41;;;;;;;2.20;0.93;;;;;;;;;;4979776;28;20050;-92
2021/11/04 12:13:07;;;;;;;1.88;0.93;;;;;;;;;;4902981;29;20482;-90
2021/11/04 12:15:52;;;;;;;3.22;1.20;;;;;;;;;;4918771;29;20040;-91
2021/11/04 12:18:19;;;;;;;2.25;1.10;;;;;;;;;;4920434;29;20494;-93
2021/11/04 12:20:56;;;;;;;2.25;0.90;;;;;;;;;;4906621;29;20028;-93
2021/11/04 12:23:30;;;;;;;1.75;0.90;;;;;;;;;;4904150;29;20040;-94
2021/11/04 12:25:56;;;;;;;2.78;1.17;;;;;;;;;;4904748;29;20050;-93
2021/11/04 12:28:22;;;;;;;3.40;0.90;;;;;;;;;;4903196;29;20020;-92
2021/11/04 12:30:48;;;;;;;2.03;0.82;;;;;;;;;;4903005;29;20260;-93
2021/11/04 12:33:15;;;;;;;4.65;1.35;;;;;;;;;;4903631;29;20064;-91
2021/11/04 12:35:47;;;;;;;2.38;1.10;;;;;;;;;;4903653;29;20083;-90
2021/11/04 12:38:14;;;;;;;1.70;0.90;;;;;;;;;;4918418;29;20182;-90
2021/11/04 12:40:41;;;;;;;1.80;1.05;;;;;;;;;;4918577;29;20044;-92
2021/11/04 12:43:11;;;;;;;3.15;1.55;;;;;;;;;;4901847;29;20059;-92
2021/11/04 12:45:44;;;;;;;1.30;0.70;;;;;;;;;;4903004;29;20020;-91
2021/11/04 12:48:10;;;;;;;1.67;0.90;;;;;;;;;;4903687;29;20200;-93
2021/11/04 12:50:38;;;;;;;1.90;0.77;;;;;;;;;;4978162;28;20037;-93
2021/11/04 12:53:06;;;;;;;2.15;1.05;;;;;;;;;;4978315;28;20103;-90
2021/11/04 12:55:32;;;;;;;1.92;0.77;;;;;;;;;;4979306;28;20539;-90
2021/11/04 12:58:06;;;;;;;3.30;1.00;;;;;;;;;;4996734;28;20030;-92
2021/11/04 13:00:33;;;;;;;1.85;0.90;;;;;;;;;;4981382;28;20022;-93
2021/11/04 13:03:00;;;;;;;2.80;0.90;;;;;;;;;;4980017;28;20125;-93
2021/11/04 13:05:26;;;;;;;1.98;0.80;;;;;;;;;;4977374;28;20476;-90
2021/11/04 13:07:56;;;;;;;1.17;0.70;;;;;;;;;;4977290;28;20042;-89
2021/11/04 13:10:25;;;;;;;2.20;1.00;;;;;;;;;;4975938;28;20291;-90
2021/11/04 13:12:54;;;;;;;2.08;0.90;;;;;;;;;;4977915;28;20033;-90
2021/11/04 13:15:20;;;;;;;2.45;1.00;;;;;;;;;;4977466;28;20022;-89
2021/11/04 13:17:53;;;;;;;2.47;0.98;;;;;;;;;;4988910;28;20102;-89
2021/11/04 13:20:38;;;;;;;2.90;1.10;;;;;;;;;;4966713;28;20027;-88
2021/11/04 13:23:10;;;;;;;2.63;1.10;;;;;;;;;;4970679;28;20062;-90
2021/11/04 13:25:38;;;;;;;2.50;1.00;;;;;;;;;;4988809;28;20096;-88
2021/11/04 13:28:27;;;;;;;1.55;0.70;;;;;;;;;;4976857;28;20121;-89
2021/11/04 13:30:55;;;;;;;2.45;1.13;;;;;;;;;;4966623;28;20046;-88
2021/11/04 13:33:34;;;;;;;2.17;1.00;;;;;;;;;;4977413;28;20035;-90
2021/11/04 13:36:05;;;;;;;2.53;0.82;;;;;;;;;;4975691;28;20062;-90
2021/11/04 13:41:55;;;;;;;4.72;1.02;;;;;;;;;;4915358;29;20080;-88
2021/11/04 13:44:28;;;;;;;4.10;1.15;;;;;;;;;;4915950;29;20131;-89
2021/11/04 13:46:54;;;;;;;2.78;1.00;;;;;;;;;;4915329;29;20528;-89
2021/11/04 13:49:20;;;;;;;1.58;0.80;;;;;;;;;;4934626;29;20079;-89
2021/11/04 13:51:53;;;;;;;3.20;0.90;;;;;;;;;;4923730;29;20032;-89
2021/11/04 13:54:23;;;;;;;2.42;0.93;;;;;;;;;;4916019;29;20032;-90
2021/11/04 13:57:02;;;;;;;2.40;0.80;;;;;;;;;;4918797;29;20091;-88
2021/11/04 13:59:33;;;;;;;3.90;1.40;;;;;;;;;;4918479;29;20074;-89
2021/11/04 14:02:00;;;;;;;3.28;1.08;;;;;;;;;;4917810;29;20165;-88
2021/11/04 14:04:29;;;;;;;3.33;1.10;;;;;;;;;;4914971;29;20095;-89
2021/11/04 14:06:59;;;;;;;2.75;0.80;;;;;;;;;;4918304;29;20040;-88
2021/11/04 14:09:26;;;;;;;2.22;1.10;;;;;;;;;;4930803;29;20519;-89
2021/11/04 14:12:11;;;;;;;3.15;0.70;;;;;;;;;;4919754;29;20040;-89
2021/11/04 14:14:44;;;;;;;2.80;1.00;;;;;;;;;;4935004;29;20118;-87
2021/11/04 14:17:26;;;;;;;1.70;0.70;;;;;;;;;;4941762;28;20043;-88
2021/11/04 14:19:58;;;;;;;3.15;1.10;;;;;;;;;;4980113;28;20376;-88
2021/11/04 14:25:12;;;;;;;4.72;1.50;;;;;;;;;;4997154;28;20109;-88
2021/11/04 14:28:03;;;;;;;2.53;1.02;;;;;;;;;;4979949;28;20034;-88
2021/11/04 14:30:33;;;;;;;2.92;0.85;;;;;;;;;;4967935;28;20026;-89
2021/11/04 14:32:59;;;;;;;2.92;1.00;;;;;;;;;;4979881;28;20496;-88
2021/11/04 14:35:26;;;;;;;3.15;1.00;;;;;;;;;;4972795;28;20093;-89
2021/11/04 14:37:58;;;;;;;3.28;0.98;;;;;;;;;;4963537;28;20113;-91
2021/11/04 14:40:24;;;;;;;2.72;1.10;;;;;;;;;;4983748;28;20038;-88
2021/11/04 14:42:51;;;;;;;2.95;0.88;;;;;;;;;;4968321;28;20097;-89
2021/11/04 14:45:20;;;;;;;2.10;0.80;;;;;;;;;;4960644;28;20027;-90
2021/11/04 14:47:46;;;;;;;11.35;1.90;;;;;;;;;;4960898;28;20030;-89
2021/11/04 14:50:16;;;;;;;2.55;0.77;;;;;;;;;;4960917;28;20027;-89
2021/11/04 14:52:43;;;;;;;1.88;0.60;;;;;;;;;;4961180;28;20027;-89
2021/11/04 14:55:10;;;;;;;2.58;0.80;;;;;;;;;;4960933;28;20476;-89
2021/11/04 14:57:36;;;;;;;2.60;0.73;;;;;;;;;;4960379;28;20563;-89
2021/11/04 15:00:04;;;;;;;2.25;0.85;;;;;;;;;;4977568;28;20530;-89
2021/11/04 15:02:30;;;;;;;2.70;0.80;;;;;;;;;;4979046;28;20484;-89
2021/11/04 15:04:56;;;;;;;2.75;1.00;;;;;;;;;;4979233;28;20030;-89
2021/11/04 15:07:22;;;;;;;1.60;0.63;;;;;;;;;;4979488;28;20081;-89
2021/11/04 15:09:48;;;;;;;2.40;1.27;;;;;;;;;;4980630;28;20464;-89
2021/11/04 15:12:15;;;;;;;7.68;1.30;;;;;;;;;;4980003;28;20050;-89
2021/11/04 15:14:41;;;;;;;4.97;1.30;;;;;;;;;;4968630;28;20054;-90
2021/11/04 15:17:07;;;;;;;3.03;1.33;;;;;;;;;;4960323;28;20129;-90
2021/11/04 15:19:34;;;;;;;2.03;0.80;;;;;;;;;;4960858;28;20050;-90
2021/11/04 15:22:01;;;;;;;1.77;0.70;;;;;;;;;;4960593;28;20053;-89
2021/11/04 15:24:27;;;;;;;2.85;1.15;;;;;;;;;;4960686;28;20022;-89
2021/11/04 15:26:53;;;;;;;1.65;0.70;;;;;;;;;;4960982;28;20062;-93
2021/11/04 15:29:19;;;;;;;2.70;0.82;;;;;;;;;;4960869;28;20441;-90
2021/11/04 15:31:45;;;;;;;3.03;1.30;;;;;;;;;;4996578;28;20551;-90
2021/11/04 15:34:11;;;;;;;4.28;1.50;;;;;;;;;;4997897;28;20468;-92
2021/11/04 15:36:37;;;;;;;4.63;1.08;;;;;;;;;;4980714;28;20388;-92
2021/11/04 15:39:04;;;;;;;2.40;0.93;;;;;;;;;;4969617;28;20437;-92
2021/11/04 15:41:30;;;;;;;6.97;1.70;;;;;;;;;;4978605;28;20094;-92
2021/11/04 15:43:57;;;;;;;4.60;1.83;;;;;;;;;;4970821;28;20117;-92
2021/11/04 15:46:23;;;;;;;3.25;1.27;;;;;;;;;;4978916;28;20033;-92
2021/11/04 15:48:49;;;;;;;5.25;1.90;;;;;;;;;;4977148;28;20041;-91
2021/11/04 15:51:16;;;;;;;2.88;1.00;;;;;;;;;;4978217;28;20035;-92
2021/11/04 15:53:42;;;;;;;2.78;1.10;;;;;;;;;;4979529;28;20038;-93
2021/11/04 15:56:10;;;;;;;2.13;1.00;;;;;;;;;;4978730;28;20394;-92
2021/11/04 15:58:36;;;;;;;2.33;0.90;;;;;;;;;;4979646;28;20027;-92
2021/11/04 16:01:02;;;;;;;2.53;0.88;;;;;;;;;;4967202;28;20065;-92
2021/11/04 16:03:28;;;;;;;2.90;1.02;;;;;;;;;;4977774;28;20065;-91
2021/11/04 16:05:54;;;;;;;3.05;1.00;;;;;;;;;;4978971;28;20026;-91
2021/11/04 16:08:21;;;;;;;3.03;0.80;;;;;;;;;;4996904;28;20038;-92
2021/11/04 16:10:47;;;;;;;2.58;0.95;;;;;;;;;;5000885;28;20022;-91
2021/11/04 16:13:13;;;;;;;3.97;1.48;;;;;;;;;;4998734;28;20057;-92
2021/11/04 16:15:39;;;;;;;2.40;0.93;;;;;;;;;;4973455;28;20030;-92
2021/11/04 16:18:05;;;;;;;2.90;1.10;;;;;;;;;;4979554;28;20081;-92
2021/11/04 16:20:31;;;;;;;3.22;1.10;;;;;;;;;;4979441;28;20073;-91
2021/11/04 16:22:57;;;;;;;2.80;1.05;;;;;;;;;;4979957;28;20026;-92
2021/11/04 16:25:23;;;;;;;1.88;0.88;;;;;;;;;;4979894;28;20022;-92
2021/11/04 16:27:50;;;;;;;3.15;1.10;;;;;;;;;;4978675;28;20080;-92
2021/11/04 16:30:17;;;;;;;4.43;1.20;;;;;;;;;;4980076;28;20026;-93
2021/11/04 16:32:43;;;;;;;6.38;3.10;;;;;;;;;;4969501;28;21981;-93
2021/11/04 16:35:09;;;;;;;6.97;3.30;;;;;;;;;;5005158;28;20026;-92
2021/11/04 16:37:39;;;;;;;4.90;2.03;;;;;;;;;;4986498;28;20479;-93
2021/11/04 16:40:05;;;;;;;4.43;2.40;;;;;;;;;;4977985;28;20026;-93
2021/11/04 16:42:32;;;;;;;5.28;1.80;;;;;;;;;;4980057;28;20079;-94
2021/11/04 16:44:58;;;;;;;22.50;19.40;;;;;;;;;;4981928;28;20018;-93
2021/11/04 16:47:26;;;;;;;5.43;2.80;;;;;;;;;;4996870;28;20492;-93
2021/11/04 16:49:52;;;;;;;3.65;1.50;;;;;;;;;;4982144;28;20057;-92
2021/11/04 16:52:19;;;;;;;4.30;1.75;;;;;;;;;;4984058;28;20025;-91
2021/11/04 16:54:45;;;;;;;4.63;2.40;;;;;;;;;;4982588;28;20143;-93
2021/11/04 16:57:11;;;;;;;5.40;1.83;;;;;;;;;;4987614;28;20027;-92